LFOV 301800Z AUTO 04016KT CAVOK 08/M04 Q1024

ElémentsDécodage
LFOV Station météo située sur l'aérodrome de LAVAL Entrammes
301800Z émis le 30 du mois à 18h00 UTC
AUTO Bulletin édité par un automate
04016KT vent du 040°, 16 noeuds
CAVOK Ceiling And Visibility OK
- Visibilité de 10 Km ou plus
- Pas de nuage au-dessous de 1500m ou au-dessous de l'altitude minimale du secteur la plus élevée (si>1500m) et absence de CB
- pas de temps présent significatif
08/M04 température 08°C, point de rosée -04°C
 soit une humidité relative de 42%
Q1024 la pression au niveau de la mer (QNH) est de 1024 hPa